Terminal Aerodrome Forecast
Issued by NWS

Home | Current Version | Previous Version | Text Only | Print | Product List | Glossary On
Versions: 1 2 3 4 5 6 7 8 9 10 11 12
000
FTUS42 TJSJ 301744
TAFJMZ
TAF
TJMZ 301744Z 3018/0118 07010KT P6SM -SHRA SCT025 SCT040 BKN050
      TEMPO 3018/3019 3SM TSRA BKN020CB OVC050
     FM302300 06007KT P6SM FEW025 SCT080
     FM011300 14012KT P6SM SCT025 SCT060 BKN090
      AMD NOT SKED=

USA.gov is the U.S. government's official web portal to all federal, state and local government web resources and services.